Historical Weather Data
Okotoks
Hwy 2A and Milligan Dr

Date
ET inches
Rain inches
Temperature °C
Humidity
Avg
Wind kmh
Avg
Solar Wm2
Avg
High
Avg
Low
09/01/2021 0.10 0.00 18.6 9.2 2.5 70 7.2 163
09/02/2021 0.11 0.00 16.5 10.0 0.9 67 5.7 189
09/03/2021 0.13 0.00 22.8 12.5 2.8 62 4.2 224
09/04/2021 0.16 0.00 25.7 14.2 2.7 53 6.7 219
09/05/2021 0.14 0.00 26.6 17.3 7.8 46 5.5 180
09/06/2021 0.15 0.00 23.1 13.6 4.0 52 6.9 222
09/07/2021 0.16 0.00 24.7 13.6 2.1 50 6.8 221
09/08/2021 0.10 0.00 25.2 13.2 4.5 63 5.1 136
09/09/2021 0.15 0.00 28.3 15.9 5.4 57 6.3 197
09/10/2021 0.13 0.01 20.6 12.9 4.3 68 9.3 180
09/11/2021 0.03 0.12 15.1 11.1 9.3 92 5.6 63
09/12/2021 0.05 0.01 15.5 10.8 6.0 89 6.8 98
09/13/2021 0.12 0.00 19.7 11.2 4.0 67 5.2 198
09/14/2021 0.13 0.00 21.0 11.2 1.0 54 6.9 170
09/15/2021 0.05 0.01 11.7 6.3 -1.8 71 9.0 79
09/16/2021 0.11 0.00 15.5 4.8 -3.9 50 6.2 189
09/17/2021 0.15 0.00 20.8 8.3 -5.4 51 14.1 158
09/18/2021 0.20 0.00 21.4 16.0 5.4 40 19.6 147
09/19/2021 0.10 0.00 17.8 8.9 -0.9 44 6.8 154
09/20/2021 0.10 0.00 17.9 7.1 -2.6 51 6.5 161
09/21/2021 0.13 0.00 25.1 11.5 -1.6 46 5.8 187
09/22/2021 0.06 0.00 19.2 13.6 4.7 45 5.8 44
09/23/2021 0.11 0.00 17.5 8.4 0.7 55 6.4 171
09/24/2021 0.12 0.00 26.2 11.6 -2.5 55 5.7 165
09/25/2021 0.08 0.00 23.0 14.5 6.3 56 6.1 84
09/26/2021 0.12 0.00 26.7 14.9 5.8 53 6.2 129